createdAt,value
2023-05-02T00:00:40.308Z,8.30
2023-05-02T00:04:42.156Z,8.40
2023-05-02T00:08:43.934Z,8.70
2023-05-02T00:12:45.636Z,8.87
2023-05-02T00:16:47.552Z,10.50
2023-05-02T00:20:49.262Z,9.67
2023-05-02T00:24:51.629Z,8.87
2023-05-02T00:28:53.468Z,8.73
2023-05-02T00:32:55.232Z,9.27
2023-05-02T00:36:57.181Z,9.43
2023-05-02T00:40:58.845Z,9.53
2023-05-02T00:45:00.643Z,8.90
2023-05-02T00:49:02.462Z,9.20
2023-05-02T00:53:04.775Z,8.37
2023-05-02T00:57:06.992Z,10.60
2023-05-02T01:01:12.478Z,10.07
2023-05-02T01:05:16.972Z,9.60
2023-05-02T01:09:52.130Z,9.03
2023-05-02T01:13:53.800Z,9.90
2023-05-02T01:17:56.440Z,8.90
2023-05-02T01:21:58.425Z,9.20
2023-05-02T01:26:13.650Z,9.33
2023-05-02T01:30:15.457Z,9.17
2023-05-02T01:34:18.900Z,8.63
2023-05-02T01:38:21.052Z,7.97
2023-05-02T01:42:23.104Z,9.13
2023-05-02T01:46:30.432Z,9.00
2023-05-02T01:50:32.193Z,10.07
2023-05-02T01:54:33.961Z,8.93
2023-05-02T01:58:35.893Z,9.20
2023-05-02T02:02:37.565Z,8.10
2023-05-02T02:06:46.613Z,8.67
2023-05-02T02:10:51.066Z,9.47
2023-05-02T02:15:24.464Z,8.20
2023-05-02T02:19:32.424Z,7.63
2023-05-02T02:23:40.436Z,8.47
2023-05-02T02:27:42.344Z,8.70
2023-05-02T02:31:44.026Z,7.87
2023-05-02T02:35:50.568Z,9.27
2023-05-02T02:40:29.803Z,8.30
2023-05-02T02:44:35.327Z,9.30
2023-05-02T02:48:47.967Z,8.77
2023-05-02T02:52:54.197Z,10.23
2023-05-02T02:57:19.084Z,9.40
2023-05-02T03:01:24.648Z,9.03
2023-05-02T03:05:26.436Z,8.53
2023-05-02T03:09:30.529Z,8.63
2023-05-02T03:13:32.582Z,8.30
2023-05-02T03:17:34.378Z,10.23
2023-05-02T03:21:36.590Z,8.73
2023-05-02T03:25:39.013Z,8.43
2023-05-02T03:29:40.873Z,8.13
2023-05-02T03:33:42.892Z,8.87
2023-05-02T03:37:45.475Z,7.97
2023-05-02T03:41:47.371Z,9.23
2023-05-02T03:45:50.500Z,8.20
2023-05-02T03:49:53.170Z,8.13
2023-05-02T03:53:55.121Z,9.73
2023-05-02T03:57:57.197Z,8.07
2023-05-02T04:01:59.186Z,9.77
2023-05-02T04:06:01.185Z,8.70
2023-05-02T04:10:03.247Z,7.90
2023-05-02T04:14:05.157Z,7.93
2023-05-02T04:18:08.179Z,7.33
2023-05-02T04:22:10.282Z,8.73
2023-05-02T04:26:12.024Z,7.67
2023-05-02T04:30:16.732Z,7.00
2023-05-02T04:34:18.469Z,6.77
2023-05-02T04:38:20.373Z,6.97
2023-05-02T04:42:23.642Z,7.50
2023-05-02T04:46:34.639Z,6.63
2023-05-02T04:50:36.600Z,7.60
2023-05-02T04:54:50.289Z,6.70
2023-05-02T04:58:52.108Z,6.93
2023-05-02T05:02:53.870Z,6.87
2023-05-02T05:06:58.791Z,6.50
2023-05-02T05:11:00.696Z,7.87
2023-05-02T05:15:05.239Z,7.37
2023-05-02T05:19:14.809Z,8.13
2023-05-02T05:23:22.776Z,6.73
2023-05-02T05:27:51.392Z,7.37
2023-05-02T05:31:55.886Z,7.33
2023-05-02T05:35:57.710Z,6.50
2023-05-02T05:40:07.837Z,6.67
2023-05-02T05:44:10.567Z,7.20
2023-05-02T05:48:15.478Z,7.63
2023-05-02T05:52:17.331Z,6.00
2023-05-02T05:56:19.119Z,7.00
2023-05-02T06:00:21.253Z,8.40
2023-05-02T06:04:25.886Z,7.43
2023-05-02T06:08:29.636Z,6.13
2023-05-02T06:12:49.155Z,5.40
2023-05-02T06:16:55.491Z,5.53
2023-05-02T06:20:57.997Z,6.90
2023-05-02T06:25:12.924Z,5.63
2023-05-02T06:29:15.092Z,6.60
2023-05-02T06:33:19.947Z,6.90
2023-05-02T06:37:37.869Z,6.57
2023-05-02T06:41:40.066Z,5.50
2023-05-02T06:45:49.682Z,6.07
2023-05-02T06:50:25.792Z,5.70
2023-05-02T06:54:31.070Z,5.40
2023-05-02T06:58:42.361Z,5.00
2023-05-02T07:02:50.721Z,5.40
2023-05-02T07:06:52.771Z,4.80
2023-05-02T07:10:54.707Z,6.73
2023-05-02T07:14:56.450Z,4.37
2023-05-02T07:18:58.314Z,6.30
2023-05-02T07:23:02.670Z,5.80
2023-05-02T07:27:05.387Z,5.20
2023-05-02T07:31:07.159Z,8.43
2023-05-02T07:35:09.679Z,5.57
2023-05-02T07:39:11.689Z,4.80
2023-05-02T07:43:14.418Z,5.43
2023-05-02T07:47:16.426Z,5.50
2023-05-02T07:51:20.391Z,5.77
2023-05-02T07:55:22.449Z,5.30
2023-05-02T07:59:24.241Z,5.90
2023-05-02T08:03:26.925Z,5.23
2023-05-02T08:07:28.940Z,5.20
2023-05-02T08:11:30.824Z,5.77
2023-05-02T08:15:33.176Z,5.43
2023-05-02T08:19:37.935Z,5.63
2023-05-02T08:23:41.714Z,5.87
2023-05-02T08:27:43.987Z,4.83
2023-05-02T08:31:46.037Z,5.17
2023-05-02T08:35:48.247Z,5.50
2023-05-02T08:39:50.161Z,5.70
2023-05-02T08:43:51.894Z,5.10
2023-05-02T08:47:53.740Z,4.47
2023-05-02T08:51:55.703Z,5.03
2023-05-02T08:55:57.450Z,4.73
2023-05-02T08:59:59.382Z,4.43
2023-05-02T09:04:01.185Z,4.97
2023-05-02T09:08:03.117Z,4.57
2023-05-02T09:12:05.094Z,5.90
2023-05-02T09:16:11.041Z,4.80
2023-05-02T09:20:14.083Z,5.53
2023-05-02T09:24:18.302Z,5.03
2023-05-02T09:28:20.261Z,4.97
2023-05-02T09:32:26.845Z,6.30
2023-05-02T09:36:28.622Z,8.77
2023-05-02T09:40:32.690Z,7.97
2023-05-02T09:44:37.978Z,7.33
2023-05-02T09:48:56.376Z,7.60
2023-05-02T09:53:02.642Z,7.87
2023-05-02T09:57:07.372Z,8.20
2023-05-02T10:01:14.763Z,8.80
2023-05-02T10:05:19.425Z,8.83
2023-05-02T10:09:21.815Z,8.53
2023-05-02T10:13:28.724Z,8.27
2023-05-02T10:17:39.498Z,7.37
2023-05-02T10:21:41.680Z,8.20
2023-05-02T10:25:43.525Z,8.13
2023-05-02T10:29:45.508Z,8.77
2023-05-02T10:33:47.635Z,10.17
2023-05-02T10:37:49.848Z,11.10
2023-05-02T10:41:51.954Z,9.50
2023-05-02T10:45:54.691Z,9.57
2023-05-02T10:50:00.715Z,10.03
2023-05-02T10:54:35.040Z,9.63
2023-05-02T10:58:37.415Z,9.30
2023-05-02T11:02:40.490Z,10.87
2023-05-02T11:06:59.057Z,13.40
2023-05-02T11:11:40.942Z,10.87
2023-05-02T11:15:42.723Z,10.70
2023-05-02T11:19:45.308Z,11.37
2023-05-02T11:23:47.081Z,12.53
2023-05-02T11:27:49.409Z,10.07
2023-05-02T11:31:55.828Z,9.53
2023-05-02T11:35:58.785Z,9.37
2023-05-02T11:40:13.858Z,10.70
2023-05-02T11:44:16.066Z,9.87
2023-05-02T11:48:18.865Z,10.27
2023-05-02T11:52:20.753Z,10.83
2023-05-02T11:56:26.789Z,9.70
2023-05-02T12:00:28.723Z,9.53
2023-05-02T12:04:30.591Z,9.40
2023-05-02T12:08:32.707Z,9.37
2023-05-02T12:12:34.752Z,7.90
2023-05-02T12:16:36.725Z,7.77
2023-05-02T12:20:39.420Z,8.40
2023-05-02T12:24:43.713Z,9.97
2023-05-02T12:28:50.258Z,8.53
2023-05-02T12:32:56.325Z,9.50
2023-05-02T12:36:58.715Z,8.87
2023-05-02T12:41:00.502Z,9.27
2023-05-02T12:45:02.220Z,9.87
2023-05-02T12:49:12.621Z,8.20
2023-05-02T12:53:17.728Z,9.13
2023-05-02T12:57:23.975Z,9.47
2023-05-02T13:01:25.907Z,8.77
2023-05-02T13:05:27.660Z,9.90
2023-05-02T13:09:52.846Z,10.27
2023-05-02T13:18:34.636Z,9.03
2023-05-02T13:22:39.519Z,7.63
2023-05-02T13:26:41.766Z,7.40
2023-05-02T13:30:43.558Z,8.23
2023-05-02T13:34:46.280Z,7.37
2023-05-02T13:38:48.084Z,9.67
2023-05-02T13:42:50.034Z,8.13
2023-05-02T13:47:11.492Z,8.93
2023-05-02T13:51:16.830Z,8.20
2023-05-02T13:55:28.447Z,10.17
2023-05-02T13:59:30.598Z,10.97
2023-05-02T14:03:43.099Z,11.83
2023-05-02T14:07:48.658Z,12.30
2023-05-02T14:11:53.037Z,11.03
2023-05-02T14:15:54.938Z,11.00
2023-05-02T14:19:58.024Z,10.80
2023-05-02T14:28:40.457Z,12.33
2023-05-02T14:33:03.678Z,11.20
2023-05-02T14:37:05.920Z,10.90
2023-05-02T14:41:08.979Z,10.53
2023-05-02T14:45:11.138Z,10.73
2023-05-02T14:49:12.936Z,10.07
2023-05-02T14:53:14.767Z,8.50
2023-05-02T14:57:16.702Z,8.10
2023-05-02T15:01:19.950Z,6.97
2023-05-02T15:05:22.232Z,6.73
2023-05-02T15:13:43.968Z,6.37
2023-05-02T15:17:45.966Z,6.30
2023-05-02T15:21:48.956Z,6.90
2023-05-02T15:25:54.163Z,6.27
2023-05-02T15:29:58.769Z,6.80
2023-05-02T15:34:15.267Z,4.57
2023-05-02T15:38:17.081Z,4.50
2023-05-02T15:42:27.150Z,5.00
2023-05-02T15:46:29.157Z,3.50
2023-05-02T15:50:35.063Z,4.40
2023-05-02T15:54:41.982Z,3.67
2023-05-02T15:58:44.908Z,4.80
2023-05-02T16:02:50.080Z,4.13
2023-05-02T16:06:52.053Z,4.37
2023-05-02T16:10:54.534Z,4.30
2023-05-02T16:14:56.302Z,5.40
2023-05-02T16:18:58.209Z,5.90
2023-05-02T16:23:13.159Z,5.03
2023-05-02T16:27:14.974Z,5.20
2023-05-02T16:31:27.241Z,5.73
2023-05-02T16:35:29.044Z,5.20
2023-05-02T16:39:30.995Z,6.97
2023-05-02T16:43:33.303Z,6.90
2023-05-02T16:47:35.865Z,5.47
2023-05-02T16:51:37.671Z,5.70
2023-05-02T16:55:39.591Z,8.17
2023-05-02T16:59:42.518Z,7.47
2023-05-02T17:03:50.282Z,7.57
2023-05-02T17:07:54.443Z,6.40
2023-05-02T17:17:24.992Z,5.33
2023-05-02T17:22:08.239Z,5.20
2023-05-02T17:26:18.863Z,6.10
2023-05-02T17:40:11.044Z,5.40
2023-05-02T17:59:58.819Z,5.27
2023-05-02T18:04:19.680Z,5.00
2023-05-02T18:08:27.212Z,5.23
2023-05-02T18:12:32.419Z,3.97
2023-05-02T18:17:08.450Z,5.00
2023-05-02T18:21:15.511Z,5.00
2023-05-02T18:25:25.236Z,7.13
2023-05-02T18:40:43.617Z,4.87
2023-05-02T19:58:45.844Z,4.40
2023-05-02T20:03:03.284Z,5.47
2023-05-02T20:08:29.333Z,4.10
2023-05-02T20:12:48.445Z,4.13
2023-05-02T20:43:35.869Z,5.87
2023-05-02T20:47:37.751Z,5.13
2023-05-02T20:51:52.079Z,5.90
2023-05-02T20:55:53.932Z,6.80
2023-05-02T20:59:59.469Z,5.93
2023-05-02T21:04:17.132Z,5.60
2023-05-02T21:08:22.844Z,4.83
2023-05-02T21:12:24.932Z,5.87
2023-05-02T21:16:26.848Z,8.33
2023-05-02T21:20:30.975Z,6.60
2023-05-02T21:24:32.752Z,7.20
2023-05-02T21:28:34.643Z,7.07
2023-05-02T21:32:36.434Z,6.60
2023-05-02T21:36:38.243Z,8.73
2023-05-02T21:40:39.932Z,5.90
2023-05-02T21:44:41.729Z,5.20
2023-05-02T21:48:43.532Z,5.43
2023-05-02T21:52:48.499Z,7.17
2023-05-02T21:56:50.349Z,5.57
2023-05-02T22:00:52.193Z,6.93
2023-05-02T22:04:54.137Z,6.60
2023-05-02T22:08:55.884Z,7.47
2023-05-02T22:12:57.695Z,6.30
2023-05-02T22:17:01.395Z,8.83
2023-05-02T22:21:03.772Z,5.70
2023-05-02T22:25:06.066Z,7.37
2023-05-02T22:29:07.859Z,7.03
2023-05-02T22:33:09.904Z,6.60
2023-05-02T22:37:12.624Z,7.93
2023-05-02T22:41:14.322Z,5.20
2023-05-02T22:45:16.204Z,6.13
2023-05-02T22:49:19.827Z,7.93
2023-05-02T22:53:25.075Z,6.90
2023-05-02T22:57:26.970Z,6.50
2023-05-02T23:01:28.934Z,5.97
2023-05-02T23:05:30.714Z,8.60
2023-05-02T23:09:32.480Z,6.73
2023-05-02T23:13:34.170Z,4.93
2023-05-02T23:17:40.934Z,7.10
2023-05-02T23:21:42.877Z,7.07
2023-05-02T23:25:44.582Z,6.23
2023-05-02T23:29:48.090Z,6.00
2023-05-02T23:33:49.792Z,5.40
2023-05-02T23:37:52.445Z,5.33
2023-05-02T23:41:54.297Z,5.07
2023-05-02T23:45:56.162Z,5.43
2023-05-02T23:49:57.850Z,5.13
2023-05-02T23:53:59.525Z,8.60
2023-05-02T23:58:01.230Z,7.73
